Time;durP1;ratioP1;P1;durP2;ratioP2;P2;SDS_P1;SDS_P2;PMS_P1;PMS_P2;Temp;Humidity;BMP_temperature;BMP_pressure;BME280_temperature;BME280_humidity;BME280_pressure;Samples;Min_cycle;Max_cycle;Signal;HPM_P1;HPM_P2
2022/10/26 00:02:27;;;;;;;;;;;;;;;9.99;100.00;100874.66;5532737;32;34344;-69
2022/10/26 00:05:36;;;;;;;;;;;;;;;10.02;100.00;100874.37;5533053;32;34663;-69
2022/10/26 00:08:44;;;;;;;;;;;;;;;10.04;100.00;100880.34;5519540;32;34939;-69
2022/10/26 00:11:53;;;;;;;;;;;;;;;10.08;100.00;100886.16;5519243;32;34224;-69
2022/10/26 00:14:58;;;;;;;;;;;;;;;10.07;100.00;100890.63;5519668;32;34288;-69
2022/10/26 00:18:07;;;;;;;;;;;;;;;10.03;100.00;100890.09;5519293;32;34192;-70
2022/10/26 00:21:12;;;;;;;;;;;;;;;9.98;100.00;100894.19;5532806;32;34326;-69
2022/10/26 00:24:21;;;;;;;;;;;;;;;9.99;100.00;100901.16;5532780;32;34390;-69
2022/10/26 00:27:27;;;;;;;;;;;;;;;9.94;100.00;100895.47;5532883;32;34243;-69
2022/10/26 00:30:37;;;;;;;;;;;;;;;9.94;100.00;100890.19;5532674;32;34858;-70
2022/10/26 00:33:44;;;;;;;;;;;;;;;9.98;100.00;100889.72;5532625;32;34826;-69
2022/10/26 00:36:54;;;;;;;;;;;;;;;9.97;100.00;100895.19;5520011;32;34352;-69
2022/10/26 00:40:00;;;;;;;;;;;;;;;9.89;100.00;100889.81;5532589;32;34382;-69
2022/10/26 00:43:19;;;;;;;;;;;;;;;9.98;100.00;100889.72;5532662;32;34952;-69
2022/10/26 00:46:29;;;;;;;;;;;;;;;9.97;100.00;100896.00;5532555;32;34905;-70
2022/10/26 00:49:36;;;;;;;;;;;;;;;10.00;100.00;100889.59;5532465;32;34161;-70
2022/10/26 00:52:44;;;;;;;;;;;;;;;9.89;100.00;100885.34;5532503;32;34350;-70
2022/10/26 00:55:55;;;;;;;;;;;;;;;9.76;100.00;100886.69;5532519;32;34313;-70
2022/10/26 00:59:01;;;;;;;;;;;;;;;9.65;100.00;100879.78;5532435;32;34316;-70
2022/10/26 01:02:08;;;;;;;;;;;;;;;9.54;100.00;100875.53;5532473;32;34269;-69
2022/10/26 01:05:16;;;;;;;;;;;;;;;9.49;100.00;100877.78;5532258;32;34606;-70
2022/10/26 01:08:22;;;;;;;;;;;;;;;9.48;100.00;100889.41;5519086;32;34930;-69
2022/10/26 01:11:29;;;;;;;;;;;;;;;9.42;100.00;100884.69;5532510;32;34297;-70
2022/10/26 01:14:37;;;;;;;;;;;;;;;9.32;100.00;100883.06;5532409;32;34534;-69
2022/10/26 01:17:54;;;;;;;;;;;;;;;9.25;100.00;100887.25;5532369;32;35060;-70
2022/10/26 01:21:13;;;;;;;;;;;;;;;9.22;100.00;100882.28;5532244;32;34636;-70
2022/10/26 01:24:22;;;;;;;;;;;;;;;9.14;100.00;100883.03;5532261;32;34226;-70
2022/10/26 01:27:34;;;;;;;;;;;;;;;9.09;100.00;100875.50;5532523;32;34287;-69
2022/10/26 01:30:43;;;;;;;;;;;;;;;9.03;100.00;100876.09;5518857;32;34596;-70
2022/10/26 01:33:54;;;;;;;;;;;;;;;9.04;100.00;100874.28;5518576;32;34365;-70
2022/10/26 01:37:06;;;;;;;;;;;;;;;9.04;100.00;100879.56;5518939;32;35152;-69
2022/10/26 01:40:17;;;;;;;;;;;;;;;9.04;100.00;100877.75;5532038;32;34954;-69
2022/10/26 01:43:24;;;;;;;;;;;;;;;9.03;100.00;100875.25;5532051;32;34357;-70
2022/10/26 01:46:34;;;;;;;;;;;;;;;8.98;100.00;100869.56;5532089;32;34155;-69
2022/10/26 01:49:42;;;;;;;;;;;;;;;8.94;100.00;100865.53;5531983;32;34084;-70
2022/10/26 01:52:51;;;;;;;;;;;;;;;8.86;100.00;100862.81;5531929;32;34961;-70
2022/10/26 01:56:00;;;;;;;;;;;;;;;8.81;100.00;100873.78;5532078;32;34473;-70
2022/10/26 01:59:16;;;;;;;;;;;;;;;8.76;100.00;100872.59;5531903;32;34945;-69
2022/10/26 02:02:41;;;;;;;;;;;;;;;8.67;100.00;100875.09;5518622;32;34968;-70
2022/10/26 02:05:50;;;;;;;;;;;;;;;8.64;100.00;100871.91;5531881;32;34950;-69
2022/10/26 02:09:17;;;;;;;;;;;;;;;8.58;100.00;100864.53;5531795;32;34388;-70
2022/10/26 02:12:40;;;;;;;;;;;;;;;8.57;100.00;100871.63;5531856;32;34884;-70
2022/10/26 02:15:51;;;;;;;;;;;;;;;8.54;100.00;100871.09;5531876;32;34913;-70
2022/10/26 02:18:57;;;;;;;;;;;;;;;8.49;100.00;100862.75;5531689;32;34193;-70
2022/10/26 02:22:08;;;;;;;;;;;;;;;8.44;100.00;100860.53;5531834;32;34820;-70
2022/10/26 02:25:21;;;;;;;;;;;;;;;8.41;100.00;100854.72;5531251;32;34905;-70
2022/10/26 02:28:35;;;;;;;;;;;;;;;8.35;100.00;100856.09;5531707;32;34213;-70
2022/10/26 02:31:42;;;;;;;;;;;;;;;8.34;100.00;100862.38;5532035;32;34703;-70
2022/10/26 02:34:55;;;;;;;;;;;;;;;8.35;100.00;100868.47;5531644;32;34940;-70
2022/10/26 02:38:04;;;;;;;;;;;;;;;8.38;100.00;100855.81;5531686;32;34332;-70
2022/10/26 02:41:15;;;;;;;;;;;;;;;8.33;100.00;100860.69;5531477;32;34782;-70
2022/10/26 02:44:26;;;;;;;;;;;;;;;8.31;100.00;100859.16;5518201;32;35110;-70
2022/10/26 02:47:33;;;;;;;;;;;;;;;8.30;100.00;100860.97;5531546;32;34734;-70
2022/10/26 02:50:46;;;;;;;;;;;;;;;8.29;100.00;100872.50;5531471;32;34213;-70
2022/10/26 02:53:57;;;;;;;;;;;;;;;8.28;100.00;100868.16;5531526;32;34861;-70
2022/10/26 02:57:15;;;;;;;;;;;;;;;8.24;100.00;100875.56;5518116;32;34134;-69
2022/10/26 03:00:20;;;;;;;;;;;;;;;8.22;100.00;100885.44;5531366;32;34863;-69
2022/10/26 03:03:27;;;;;;;;;;;;;;;8.18;100.00;100889.31;5531406;32;34816;-70
2022/10/26 03:06:34;;;;;;;;;;;;;;;8.12;100.00;100879.34;5531320;32;34895;-69
2022/10/26 03:09:41;;;;;;;;;;;;;;;8.13;100.00;100883.63;5531351;32;34217;-69
2022/10/26 03:12:48;;;;;;;;;;;;;;;8.09;100.00;100889.31;5531514;32;34590;-71
2022/10/26 03:15:58;;;;;;;;;;;;;;;8.04;100.00;100883.63;5531335;32;34808;-70
2022/10/26 03:19:04;;;;;;;;;;;;;;;7.98;100.00;100886.84;5531072;32;34205;-70
2022/10/26 03:22:11;;;;;;;;;;;;;;;7.96;100.00;100894.06;5531593;32;34419;-70
2022/10/26 03:25:20;;;;;;;;;;;;;;;7.94;100.00;100899.47;5517724;32;34263;-70
2022/10/26 03:28:28;;;;;;;;;;;;;;;8.03;100.00;100898.66;5531018;32;34844;-70
2022/10/26 03:31:36;;;;;;;;;;;;;;;7.96;100.00;100900.19;5531172;32;34727;-70
2022/10/26 03:34:41;;;;;;;;;;;;;;;7.92;100.00;100905.88;5517670;32;34305;-70
2022/10/26 03:37:50;;;;;;;;;;;;;;;7.90;100.00;100903.38;5525461;32;34948;-70
2022/10/26 03:40:59;;;;;;;;;;;;;;;7.90;100.00;100906.00;5531381;32;35002;-70
2022/10/26 03:44:06;;;;;;;;;;;;;;;7.93;100.00;100904.91;5530933;32;35122;-70
2022/10/26 03:47:13;;;;;;;;;;;;;;;7.90;100.00;100913.09;5530982;32;34389;-70
2022/10/26 03:50:20;;;;;;;;;;;;;;;7.86;100.00;100905.47;5530854;32;34225;-70
2022/10/26 03:53:27;;;;;;;;;;;;;;;7.83;100.00;100908.37;5530835;32;34587;-70
2022/10/26 03:56:35;;;;;;;;;;;;;;;7.87;100.00;100912.41;5517141;32;34758;-69
2022/10/26 03:59:42;;;;;;;;;;;;;;;7.84;100.00;100919.78;5530710;32;34596;-70
2022/10/26 04:02:57;;;;;;;;;;;;;;;7.82;100.00;100927.00;5530951;32;34727;-69
2022/10/26 04:06:04;;;;;;;;;;;;;;;7.80;100.00;100927.12;5530648;32;34761;-69
2022/10/26 04:09:09;;;;;;;;;;;;;;;7.78;100.00;100926.44;5517440;32;34300;-70
2022/10/26 04:12:16;;;;;;;;;;;;;;;7.87;100.00;100912.41;5530542;32;34099;-70
2022/10/26 04:15:22;;;;;;;;;;;;;;;7.88;100.00;100918.53;5530401;32;34504;-70
2022/10/26 04:18:29;;;;;;;;;;;;;;;7.87;100.00;100928.28;5530238;32;34897;-69
2022/10/26 04:21:35;;;;;;;;;;;;;;;7.87;100.00;100924.78;5530492;32;34898;-69
2022/10/26 04:24:43;;;;;;;;;;;;;;;7.90;100.00;100926.31;5529323;32;33624;-70
2022/10/26 04:27:49;;;;;;;;;;;;;;;7.89;100.00;100920.19;5549462;32;34300;-70
2022/10/26 04:30:57;;;;;;;;;;;;;;;7.88;100.00;100923.81;5536367;32;34303;-70
2022/10/26 04:34:05;;;;;;;;;;;;;;;7.87;100.00;100925.63;5535384;32;34513;-70
2022/10/26 04:37:12;;;;;;;;;;;;;;;7.87;100.00;100928.28;5549291;32;34285;-70
2022/10/26 04:40:17;;;;;;;;;;;;;;;7.85;100.00;100924.09;5535987;32;34254;-70
2022/10/26 04:43:21;;;;;;;;;;;;;;;7.82;100.00;100925.19;5549197;32;34557;-70
2022/10/26 04:46:24;;;;;;;;;;;;;;;7.85;100.00;100932.84;5536035;32;34300;-70
2022/10/26 04:49:27;;;;;;;;;;;;;;;7.81;100.00;100927.97;5552264;32;34266;-70
2022/10/26 04:52:30;;;;;;;;;;;;;;;7.78;100.00;100930.91;5551704;32;34402;-70
2022/10/26 04:55:33;;;;;;;;;;;;;;;7.76;100.00;100935.47;5551778;32;34321;-71
2022/10/26 04:58:37;;;;;;;;;;;;;;;7.78;100.00;100925.63;5537956;32;34704;-71
2022/10/26 05:01:39;;;;;;;;;;;;;;;7.71;100.00;100935.88;5551712;32;34290;-71
2022/10/26 05:04:42;;;;;;;;;;;;;;;7.65;100.00;100932.97;5551853;32;34867;-70
2022/10/26 05:07:52;;;;;;;;;;;;;;;7.62;100.00;100927.94;5552128;32;34824;-70
2022/10/26 05:10:56;;;;;;;;;;;;;;;7.62;100.00;100923.50;5551561;32;34356;-71
2022/10/26 05:14:01;;;;;;;;;;;;;;;7.60;100.00;100920.12;5551724;32;34351;-70
2022/10/26 05:17:05;;;;;;;;;;;;;;;7.55;100.00;100927.63;5551547;32;35089;-71
2022/10/26 05:20:12;;;;;;;;;;;;;;;7.55;100.00;100930.25;5551451;32;34972;-70
2022/10/26 05:23:17;;;;;;;;;;;;;;;7.54;100.00;100933.06;5551738;32;34279;-70
2022/10/26 05:26:22;;;;;;;;;;;;;;;7.56;100.00;100944.31;5551368;32;34434;-70
2022/10/26 05:29:26;;;;;;;;;;;;;;;7.54;100.00;100943.62;5551343;32;34978;-70
2022/10/26 05:32:30;;;;;;;;;;;;;;;7.50;100.00;100956.25;5551344;32;33629;-71
2022/10/26 05:35:33;;;;;;;;;;;;;;;7.48;100.00;100957.34;5551354;32;34877;-71
2022/10/26 05:38:39;;;;;;;;;;;;;;;7.48;100.00;100960.84;5551379;32;34349;-72
2022/10/26 05:41:44;;;;;;;;;;;;;;;7.50;100.00;100953.62;5537477;32;34333;-71
2022/10/26 05:44:46;;;;;;;;;;;;;;;7.51;100.00;100957.06;5551277;32;34769;-71
2022/10/26 05:47:49;;;;;;;;;;;;;;;7.53;100.00;100953.34;5550986;32;34607;-71
2022/10/26 05:50:52;;;;;;;;;;;;;;;7.54;100.00;100951.53;5550894;32;34369;-71
2022/10/26 05:53:55;;;;;;;;;;;;;;;7.59;100.00;100959.91;5551325;32;34414;-71
2022/10/26 05:56:58;;;;;;;;;;;;;;;7.64;100.00;100955.06;5550753;32;34453;-71
2022/10/26 06:00:01;;;;;;;;;;;;;;;7.67;100.00;100966.16;5536436;32;34338;-71
2022/10/26 06:03:16;;;;;;;;;;;;;;;7.71;100.00;100966.72;5550720;32;34896;-70
2022/10/26 06:06:21;;;;;;;;;;;;;;;7.73;100.00;100970.09;5537097;32;34355;-70
2022/10/26 06:09:24;;;;;;;;;;;;;;;7.74;100.00;100969.97;5550776;32;34446;-71
2022/10/26 06:12:28;;;;;;;;;;;;;;;7.80;100.00;100974.69;5550476;32;34300;-70
2022/10/26 06:15:36;;;;;;;;;;;;;;;7.86;100.00;100978.59;5550803;32;34185;-70
2022/10/26 06:18:48;;;;;;;;;;;;;;;7.92;100.00;100975.41;5550133;32;34408;-71
2022/10/26 06:21:51;;;;;;;;;;;;;;;7.98;100.00;100981.97;5551091;32;34862;-71
2022/10/26 06:25:08;;;;;;;;;;;;;;;8.05;100.00;100983.06;5550610;32;34247;-71
2022/10/26 06:28:20;;;;;;;;;;;;;;;8.14;100.00;100991.00;5537358;32;34964;-73
2022/10/26 06:31:25;;;;;;;;;;;;;;;8.29;100.00;100994.09;5550987;32;34364;-72
2022/10/26 06:34:32;;;;;;;;;;;;;;;8.40;100.00;100987.88;5537022;32;35782;-72
2022/10/26 06:37:36;;;;;;;;;;;;;;;8.50;100.00;100999.28;5550995;32;34260;-73
2022/10/26 06:40:41;;;;;;;;;;;;;;;8.61;100.00;100988.56;5550888;32;34862;-72
2022/10/26 06:43:45;;;;;;;;;;;;;;;8.75;100.00;100988.12;5537222;32;34578;-72
2022/10/26 06:46:55;;;;;;;;;;;;;;;8.83;100.00;100984.78;5536673;32;34688;-72
2022/10/26 06:50:17;;;;;;;;;;;;;;;8.91;100.00;100988.38;5536007;32;35410;-71
2022/10/26 06:53:22;;;;;;;;;;;;;;;9.05;100.00;100995.88;5537376;32;34962;-71
2022/10/26 06:56:26;;;;;;;;;;;;;;;9.16;100.00;101006.28;5536810;32;34118;-71
2022/10/26 06:59:31;;;;;;;;;;;;;;;9.32;100.00;101010.16;5536641;32;34303;-72
2022/10/26 07:02:34;;;;;;;;;;;;;;;9.47;100.00;101014.00;5551081;32;34820;-73
2022/10/26 07:05:37;;;;;;;;;;;;;;;9.68;100.00;101008.50;5537406;32;35106;-72
2022/10/26 07:08:44;;;;;;;;;;;;;;;9.91;100.00;101013.25;5550272;32;34990;-72
2022/10/26 07:11:48;;;;;;;;;;;;;;;10.02;100.00;101013.03;5550637;32;34930;-72
2022/10/26 07:14:53;;;;;;;;;;;;;;;10.03;100.00;101014.69;5550513;32;34384;-72
2022/10/26 07:17:56;;;;;;;;;;;;;;;10.04;100.00;101015.53;5536697;32;33384;-73
2022/10/26 07:21:00;;;;;;;;;;;;;;;10.13;100.00;101013.78;5536231;32;35417;-73
2022/10/26 07:24:03;;;;;;;;;;;;;;;10.20;100.00;101002.50;5523944;32;35140;-72
2022/10/26 07:27:07;;;;;;;;;;;;;;;10.30;100.00;101016.53;5550594;32;34973;-72
2022/10/26 07:30:14;;;;;;;;;;;;;;;10.42;100.00;101011.81;5523762;32;34413;-72
2022/10/26 07:33:18;;;;;;;;;;;;;;;10.55;100.00;101019.41;5536870;32;34174;-72
2022/10/26 07:36:21;;;;;;;;;;;;;;;10.96;100.00;101023.22;5550294;32;34329;-72
2022/10/26 07:39:31;;;;;;;;;;;;;;;11.03;100.00;101030.44;5550073;32;34220;-73
2022/10/26 07:42:35;;;;;;;;;;;;;;;11.25;100.00;101018.44;5550285;32;34969;-72
2022/10/26 07:45:39;;;;;;;;;;;;;;;11.82;100.00;101027.56;5536663;32;33949;-73
2022/10/26 07:48:42;;;;;;;;;;;;;;;13.90;100.00;101032.25;5549783;32;34291;-73
2022/10/26 07:51:46;;;;;;;;;;;;;;;14.85;100.00;101032.88;5535823;32;35042;-72
2022/10/26 07:54:51;;;;;;;;;;;;;;;15.53;98.31;101031.91;5549903;32;34294;-71
2022/10/26 07:57:55;;;;;;;;;;;;;;;15.67;94.64;101035.59;5550111;32;34590;-72
2022/10/26 08:01:10;;;;;;;;;;;;;;;16.18;95.15;101031.91;5535825;32;34429;-73
2022/10/26 08:04:13;;;;;;;;;;;;;;;16.59;88.63;101032.22;5549925;32;34961;-72
2022/10/26 08:07:16;;;;;;;;;;;;;;;17.07;86.69;101024.38;5549777;32;34294;-73
2022/10/26 08:10:19;;;;;;;;;;;;;;;17.86;81.34;101032.97;5549468;32;34356;-72
2022/10/26 08:13:22;;;;;;;;;;;;;;;17.52;81.07;101025.72;5536024;32;32642;-71
2022/10/26 08:16:25;;;;;;;;;;;;;;;16.86;83.76;101026.06;5549488;32;34825;-71
2022/10/26 08:19:28;;;;;;;;;;;;;;;15.45;92.49;101023.94;5549203;32;34917;-72
2022/10/26 08:22:32;;;;;;;;;;;;;;;14.76;99.76;101015.25;5537518;32;34338;-71
2022/10/26 08:25:35;;;;;;;;;;;;;;;13.91;100.00;101025.91;5551973;32;34909;-73
2022/10/26 08:28:38;;;;;;;;;;;;;;;13.88;100.00;101022.78;5538053;32;35239;-71
2022/10/26 08:31:41;;;;;;;;;;;;;;;13.31;100.00;101022.12;5551883;32;34860;-71
2022/10/26 08:34:46;;;;;;;;;;;;;;;13.41;100.00;101025.41;5538216;32;34705;-72
2022/10/26 08:37:50;;;;;;;;;;;;;;;13.32;100.00;101021.94;5551467;32;34583;-73
2022/10/26 08:40:56;;;;;;;;;;;;;;;13.40;100.00;101029.94;5551566;32;34787;-72
2022/10/26 08:44:04;;;;;;;;;;;;;;;13.37;100.00;101022.25;5551163;32;34218;-71
2022/10/26 08:47:21;;;;;;;;;;;;;;;13.52;100.00;101025.06;5538844;32;34896;-72
2022/10/26 08:50:25;;;;;;;;;;;;;;;13.57;100.00;101027.22;5537378;32;35508;-72
2022/10/26 08:53:32;;;;;;;;;;;;;;;13.74;100.00;101031.50;5537707;32;35031;-71
2022/10/26 08:56:49;;;;;;;;;;;;;;;13.63;100.00;101024.69;5537645;32;35013;-72
2022/10/26 08:59:55;;;;;;;;;;;;;;;13.73;100.00;101032.50;5538334;32;34429;-71
2022/10/26 09:02:59;;;;;;;;;;;;;;;13.63;100.00;101032.69;5537647;32;34717;-71
2022/10/26 09:06:12;;;;;;;;;;;;;;;13.79;100.00;101035.31;5551724;32;34082;-71
2022/10/26 09:09:19;;;;;;;;;;;;;;;13.72;100.00;101034.31;5551472;32;34684;-71
2022/10/26 09:12:35;;;;;;;;;;;;;;;13.75;100.00;101049.12;5551893;32;34266;-71
2022/10/26 09:15:39;;;;;;;;;;;;;;;13.76;100.00;101040.13;5551580;32;34230;-71
2022/10/26 09:18:55;;;;;;;;;;;;;;;13.87;100.00;101042.44;5551237;32;34336;-73
2022/10/26 09:22:06;;;;;;;;;;;;;;;13.87;100.00;101037.09;5537244;32;34688;-71
2022/10/26 09:25:16;;;;;;;;;;;;;;;14.05;100.00;101039.50;5551281;32;35133;-72
2022/10/26 09:28:20;;;;;;;;;;;;;;;14.15;100.00;101043.63;5537515;32;32652;-72
2022/10/26 09:31:24;;;;;;;;;;;;;;;14.20;100.00;101049.28;5537755;32;34756;-70
2022/10/26 09:34:31;;;;;;;;;;;;;;;14.33;100.00;101054.03;5551201;32;34200;-70
2022/10/26 09:37:37;;;;;;;;;;;;;;;14.51;100.00;101051.16;5537684;32;34949;-71
2022/10/26 09:40:43;;;;;;;;;;;;;;;14.71;100.00;101053.19;5551243;32;34266;-72
2022/10/26 09:43:49;;;;;;;;;;;;;;;14.74;100.00;101054.66;5551083;32;34802;-73
2022/10/26 09:47:05;;;;;;;;;;;;;;;14.92;100.00;101059.69;5551312;32;34199;-71
2022/10/26 09:50:21;;;;;;;;;;;;;;;15.02;100.00;101062.94;5537673;32;32799;-72
2022/10/26 09:53:24;;;;;;;;;;;;;;;15.05;100.00;101055.41;5551830;32;34416;-72
2022/10/26 09:56:29;;;;;;;;;;;;;;;15.34;100.00;101062.66;5551469;32;34373;-72
2022/10/26 09:59:33;;;;;;;;;;;;;;;15.39;100.00;101060.28;5551445;32;34391;-71
2022/10/26 10:02:38;;;;;;;;;;;;;;;15.61;100.00;101062.06;5536905;32;34505;-71
2022/10/26 10:05:43;;;;;;;;;;;;;;;15.58;100.00;101065.13;5551360;32;34059;-73
2022/10/26 10:09:05;;;;;;;;;;;;;;;15.46;100.00;101063.87;5525625;32;34937;-72
2022/10/26 10:12:18;;;;;;;;;;;;;;;15.43;100.00;101064.25;5551090;32;34293;-72
2022/10/26 10:15:24;;;;;;;;;;;;;;;16.00;100.00;101067.13;5550780;32;34319;-71
2022/10/26 10:18:28;;;;;;;;;;;;;;;16.05;100.00;101066.56;5550717;32;34290;-71
2022/10/26 10:21:34;;;;;;;;;;;;;;;15.75;100.00;101072.94;5537327;32;35048;-71
2022/10/26 10:24:42;;;;;;;;;;;;;;;15.61;100.00;101072.75;5550601;32;34802;-71
2022/10/26 10:27:51;;;;;;;;;;;;;;;15.61;100.00;101072.75;5550587;32;34471;-71
2022/10/26 10:30:58;;;;;;;;;;;;;;;15.65;100.00;101075.88;5550618;32;34933;-73
2022/10/26 10:34:14;;;;;;;;;;;;;;;16.03;100.00;101074.78;5537866;32;34194;-74
2022/10/26 10:37:37;;;;;;;;;;;;;;;15.69;100.00;101074.50;5550929;32;34177;-72
2022/10/26 10:40:48;;;;;;;;;;;;;;;14.96;100.00;101074.37;5537299;32;34617;-73
2022/10/26 10:44:04;;;;;;;;;;;;;;;15.00;100.00;101071.16;5550057;32;34812;-72
2022/10/26 10:47:15;;;;;;;;;;;;;;;14.94;100.00;101068.34;5550713;32;34927;-71
2022/10/26 10:50:19;;;;;;;;;;;;;;;14.98;100.00;101067.81;5550745;32;34445;-71
2022/10/26 10:53:32;;;;;;;;;;;;;;;15.81;100.00;101058.84;5550538;32;34942;-72
2022/10/26 10:56:35;;;;;;;;;;;;;;;15.68;100.00;101056.81;5537379;32;34154;-72
2022/10/26 10:59:45;;;;;;;;;;;;;;;16.03;100.00;101064.06;5550231;32;34328;-71
2022/10/26 11:03:09;;;;;;;;;;;;;;;16.48;100.00;101060.28;5536784;32;32617;-72
2022/10/26 11:06:16;;;;;;;;;;;;;;;16.47;100.00;101065.81;5531509;32;34691;-72
2022/10/26 11:09:24;;;;;;;;;;;;;;;16.20;100.00;101056.66;5550333;32;34919;-72
2022/10/26 11:12:29;;;;;;;;;;;;;;;16.51;100.00;101053.69;5550683;32;34860;-72
2022/10/26 11:15:36;;;;;;;;;;;;;;;16.37;100.00;101054.59;5549827;32;34179;-72
2022/10/26 11:18:50;;;;;;;;;;;;;;;16.63;100.00;101059.44;5549487;32;34282;-72
2022/10/26 11:21:57;;;;;;;;;;;;;;;16.75;100.00;101053.38;5549153;32;34947;-73
2022/10/26 11:25:06;;;;;;;;;;;;;;;16.59;100.00;101055.47;5549893;32;34227;-72
2022/10/26 11:28:29;;;;;;;;;;;;;;;16.73;100.00;101054.59;5548750;32;34258;-71
2022/10/26 11:31:35;;;;;;;;;;;;;;;16.67;100.00;101048.13;5538312;32;34284;-71
2022/10/26 11:34:54;;;;;;;;;;;;;;;16.03;100.00;101036.47;5548755;32;34638;-71
2022/10/26 11:38:03;;;;;;;;;;;;;;;16.77;100.00;101043.28;5534805;32;34203;-72
2022/10/26 11:41:06;;;;;;;;;;;;;;;17.71;98.52;101046.53;5534857;32;32876;-72
2022/10/26 11:44:20;;;;;;;;;;;;;;;17.41;96.84;101039.69;5549031;32;34919;-71
2022/10/26 11:47:33;;;;;;;;;;;;;;;18.91;88.74;101047.53;5534385;32;35257;-73
2022/10/26 11:50:39;;;;;;;;;;;;;;;18.95;88.19;101043.41;5534921;32;32846;-73
2022/10/26 11:53:44;;;;;;;;;;;;;;;18.77;86.43;101043.19;5548506;32;34917;-71
2022/10/26 11:56:48;;;;;;;;;;;;;;;18.40;89.32;101038.31;5533318;32;34847;-70
2022/10/26 11:59:53;;;;;;;;;;;;;;;18.38;89.03;101035.00;5534897;32;34723;-71
2022/10/26 12:02:57;;;;;;;;;;;;;;;18.02;92.10;101035.28;5534568;32;34423;-71
2022/10/26 12:05:59;;;;;;;;;;;;;;;17.32;96.39;101033.66;5548398;32;34850;-71
2022/10/26 12:09:06;;;;;;;;;;;;;;;17.18;99.06;101037.25;5548203;32;35051;-70
2022/10/26 12:12:20;;;;;;;;;;;;;;;16.82;100.00;101032.84;5534589;32;34173;-71
2022/10/26 12:15:26;;;;;;;;;;;;;;;16.51;100.00;101037.63;5534059;32;34918;-71
2022/10/26 12:18:52;;;;;;;;;;;;;;;16.81;100.00;101033.84;5531350;32;107461;-71
2022/10/26 12:21:58;;;;;;;;;;;;;;;17.23;100.00;101026.78;5536001;32;34342;-71
2022/10/26 12:25:21;;;;;;;;;;;;;;;17.53;97.23;101035.41;5548402;32;34253;-71
2022/10/26 12:28:35;;;;;;;;;;;;;;;17.29;98.80;101031.34;5549296;32;34797;-71
2022/10/26 12:31:38;;;;;;;;;;;;;;;17.31;98.18;101040.03;5535361;32;35375;-72
2022/10/26 12:34:49;;;;;;;;;;;;;;;17.92;95.99;101032.97;5534940;32;34220;-71
2022/10/26 12:37:52;;;;;;;;;;;;;;;17.97;95.03;101033.22;5535512;32;34120;-71
2022/10/26 12:41:04;;;;;;;;;;;;;;;17.41;96.96;101027.09;5549118;32;34432;-71
2022/10/26 12:44:26;;;;;;;;;;;;;;;16.99;100.00;101022.69;5534755;32;35047;-72
2022/10/26 12:47:29;;;;;;;;;;;;;;;18.02;97.18;101025.38;5522546;32;34734;-71
2022/10/26 12:50:33;;;;;;;;;;;;;;;18.31;92.56;101021.56;5535379;32;34985;-72
2022/10/26 12:53:36;;;;;;;;;;;;;;;18.60;90.25;101023.09;5521993;32;34593;-71
2022/10/26 12:56:55;;;;;;;;;;;;;;;17.96;94.29;101028.88;5548948;32;34818;-72
2022/10/26 13:00:04;;;;;;;;;;;;;;;18.20;92.97;101022.16;5535197;32;34083;-72
2022/10/26 13:03:27;;;;;;;;;;;;;;;18.33;91.83;101018.69;5548659;32;34338;-72
2022/10/26 13:06:50;;;;;;;;;;;;;;;18.74;89.41;101014.00;5534588;32;35147;-72
2022/10/26 13:09:54;;;;;;;;;;;;;;;18.29;92.46;101023.63;5538423;32;34584;-72
2022/10/26 13:13:00;;;;;;;;;;;;;;;18.20;92.09;101022.16;5551106;32;34302;-73
2022/10/26 13:16:09;;;;;;;;;;;;;;;17.64;95.74;101018.81;5551524;32;34867;-72
2022/10/26 13:19:31;;;;;;;;;;;;;;;17.49;97.59;101015.38;5518552;32;34331;-72
2022/10/26 13:22:44;;;;;;;;;;;;;;;17.78;96.86;101012.47;5532060;32;34616;-72
2022/10/26 13:26:00;;;;;;;;;;;;;;;17.98;93.94;101024.13;5531000;32;35103;-72
2022/10/26 13:29:09;;;;;;;;;;;;;;;18.30;92.44;101027.16;5531363;32;35112;-71
2022/10/26 13:32:13;;;;;;;;;;;;;;;17.83;95.12;101022.63;5530902;32;34786;-72
2022/10/26 13:35:19;;;;;;;;;;;;;;;17.83;95.91;101019.94;5530042;32;34175;-72
2022/10/26 13:38:25;;;;;;;;;;;;;;;17.78;98.61;101029.41;5531809;32;34560;-72
2022/10/26 13:41:33;;;;;;;;;;;;;;;17.85;95.99;101025.94;5532211;32;34668;-72
2022/10/26 13:44:47;;;;;;;;;;;;;;;17.79;96.43;101025.72;5530876;32;35106;-72
2022/10/26 13:48:05;;;;;;;;;;;;;;;17.52;100.00;101020.37;5530750;32;35109;-72
2022/10/26 13:51:12;;;;;;;;;;;;;;;16.98;100.00;101023.69;5531204;32;34359;-71
2022/10/26 13:54:19;;;;;;;;;;;;;;;17.02;100.00;101024.13;5530626;32;34518;-71
2022/10/26 13:57:35;;;;;;;;;;;;;;;17.15;100.00;101032.28;5531583;32;33101;-71
2022/10/26 14:00:38;;;;;;;;;;;;;;;17.07;100.00;101021.69;5531590;32;35000;-71
2022/10/26 14:03:43;;;;;;;;;;;;;;;17.04;100.00;101019.41;5530450;32;33543;-73
2022/10/26 14:06:49;;;;;;;;;;;;;;;17.13;100.00;101024.44;5530265;32;35206;-72
2022/10/26 14:09:54;;;;;;;;;;;;;;;16.97;100.00;101030.06;5530601;32;34697;-72
2022/10/26 14:13:00;;;;;;;;;;;;;;;16.73;100.00;101031.31;5531090;32;34912;-72
2022/10/26 14:16:08;;;;;;;;;;;;;;;16.65;100.00;101031.44;5531281;32;34773;-72
2022/10/26 14:19:25;;;;;;;;;;;;;;;16.71;100.00;101032.50;5529781;32;35149;-73
2022/10/26 14:22:30;;;;;;;;;;;;;;;16.61;100.00;101032.00;5529640;32;34460;-72
2022/10/26 14:25:34;;;;;;;;;;;;;;;16.56;100.00;101026.34;5531134;32;34912;-73
2022/10/26 14:28:59;;;;;;;;;;;;;;;16.53;100.00;101031.09;5519727;32;33705;-72
2022/10/26 14:32:18;;;;;;;;;;;;;;;16.45;100.00;101025.03;5530978;32;34903;-72
2022/10/26 14:35:28;;;;;;;;;;;;;;;16.39;100.00;101029.28;5529781;32;34859;-71
2022/10/26 14:38:36;;;;;;;;;;;;;;;16.39;100.00;101029.28;5531087;32;34293;-72
2022/10/26 14:41:40;;;;;;;;;;;;;;;16.34;100.00;101028.19;5530078;32;35427;-73
2022/10/26 14:44:43;;;;;;;;;;;;;;;16.35;100.00;101032.53;5529811;32;35572;-73
2022/10/26 14:47:48;;;;;;;;;;;;;;;16.31;100.00;101021.38;5530066;32;34306;-73
2022/10/26 14:50:58;;;;;;;;;;;;;;;16.25;100.00;101021.31;5517144;32;34286;-73
2022/10/26 14:54:03;;;;;;;;;;;;;;;16.19;100.00;101025.56;5529796;32;33342;-72
2022/10/26 14:57:26;;;;;;;;;;;;;;;16.17;100.00;101029.44;5530573;32;34290;-72
2022/10/26 15:00:29;;;;;;;;;;;;;;;16.13;100.00;101030.81;5530837;32;34305;-72
2022/10/26 15:03:34;;;;;;;;;;;;;;;16.17;100.00;101027.56;5530272;32;34251;-73
2022/10/26 15:06:39;;;;;;;;;;;;;;;16.08;100.00;101026.87;5529640;32;35146;-73
2022/10/26 15:09:47;;;;;;;;;;;;;;;16.03;100.00;101018.56;5529385;32;33612;-73
2022/10/26 15:12:53;;;;;;;;;;;;;;;15.91;100.00;101020.09;5529480;32;35883;-72
2022/10/26 15:16:14;;;;;;;;;;;;;;;15.86;100.00;101024.31;5529403;32;34385;-72
2022/10/26 15:19:22;;;;;;;;;;;;;;;15.77;100.00;101020.94;5539842;32;34852;-73
2022/10/26 15:22:27;;;;;;;;;;;;;;;15.71;100.00;101034.22;5535782;32;34291;-73
2022/10/26 15:25:36;;;;;;;;;;;;;;;15.64;100.00;101028.75;5548869;32;34736;-72
2022/10/26 15:28:43;;;;;;;;;;;;;;;15.59;100.00;101029.31;5535663;32;34192;-73
2022/10/26 15:31:58;;;;;;;;;;;;;;;15.54;100.00;101038.94;5549673;32;34342;-72
2022/10/26 15:35:10;;;;;;;;;;;;;;;15.50;100.00;101049.09;5549864;32;34392;-72
2022/10/26 15:38:15;;;;;;;;;;;;;;;15.47;100.00;101046.81;5549877;32;34381;-72
2022/10/26 15:41:25;;;;;;;;;;;;;;;15.45;100.00;101042.66;5550262;32;34269;-72
2022/10/26 15:44:28;;;;;;;;;;;;;;;15.44;100.00;101047.16;5549671;32;34569;-72
2022/10/26 15:47:33;;;;;;;;;;;;;;;15.40;100.00;101058.41;5549611;32;35016;-72
2022/10/26 15:50:39;;;;;;;;;;;;;;;15.35;100.00;101061.63;5549724;32;34365;-72
2022/10/26 15:53:46;;;;;;;;;;;;;;;15.31;100.00;101065.69;5535527;32;33615;-72
2022/10/26 15:56:53;;;;;;;;;;;;;;;15.28;100.00;101057.19;5549552;32;34175;-72
2022/10/26 15:59:59;;;;;;;;;;;;;;;15.22;100.00;101062.25;5549688;32;34546;-72
2022/10/26 16:03:19;;;;;;;;;;;;;;;15.18;100.00;101066.31;5549222;32;34927;-71